Weather at Hvar/Jelsa Seaplane Base [CLOSED]

Public forecast

Using degrees Celsius for public forecast. Weather courtesy of forecast.io.

Closest aviation weather report (METAR) to Hvar/Jelsa Seaplane Base

Closest report is Brač Airport, 6.8 nm (12.7 km) N.

2024/05/24 06:00 (retrieved 36 minutes ago)

LDSB 240600Z 32004KT 270V010 9999 SCT045 17/10 Q1019

Closest aviation forecast (TAF) to Hvar/Jelsa Seaplane Base

Closest forecast is Brač Airport, 6.8 nm (12.7 km) N.

2024/05/24 06:27 (retrieved 9 minutes ago)

TAF LDSB 240525Z 2406/2506 29005KT CAVOK TX24/2412Z TN12/2503Z BECMG 2410/2412 24009KT BECMG 2412/2414 30010KT BECMG 2422/2500 VRB02KT